Time;durP1;ratioP1;P1;durP2;ratioP2;P2;SDS_P1;SDS_P2;PMS_P1;PMS_P2;Temp;Humidity;BMP_temperature;BMP_pressure;BME280_temperature;BME280_humidity;BME280_pressure;Samples;Min_cycle;Max_cycle;Signal;HPM_P1;HPM_P2
2022/05/07 00:00:08;;;;;;;4.72;1.55;;;;;;;12.03;71.01;100393.59;12207156;19;20006;-81
2022/05/07 00:04:09;;;;;;;4.25;1.77;;;;;;;12.04;70.81;100391.66;12188253;19;20010;-81
2022/05/07 00:08:11;;;;;;;4.00;1.38;;;;;;;12.04;70.94;100388.91;12211243;19;20024;-81
2022/05/07 00:12:13;;;;;;;4.13;2.08;;;;;;;12.04;71.08;100381.44;12208144;19;20954;-82
2022/05/07 00:20:37;;;;;;;6.07;1.92;;;;;;;12.04;71.64;100384.22;12198541;19;20010;-81
2022/05/07 00:24:39;;;;;;;;;;;;;;;12.03;72.04;100381.72;12207343;19;20010;-82
2022/05/07 00:28:41;;;;;;;3.95;1.80;;;;;;;12.02;71.25;100380.03;12179278;19;19915;-83
2022/05/07 00:32:42;;;;;;;4.10;1.73;;;;;;;11.97;71.72;100379.94;12202558;19;20014;-82
2022/05/07 00:36:44;;;;;;;2.45;1.63;;;;;;;11.95;72.31;100374.63;12219126;19;20067;-81
2022/05/07 00:40:48;;;;;;;4.45;1.90;;;;;;;11.94;72.73;100372.13;12203543;19;20492;-82
2022/05/07 00:44:51;;;;;;;2.80;1.60;;;;;;;11.91;72.45;100370.69;12224985;19;20006;-82
2022/05/07 00:48:54;;;;;;;3.00;1.95;;;;;;;11.91;72.24;100361.59;12198968;19;20363;-80
2022/05/07 00:52:56;;;;;;;2.85;2.03;;;;;;;11.91;72.60;100372.63;12177366;19;20688;-81
2022/05/07 00:56:57;;;;;;;3.90;1.65;;;;;;;11.88;72.72;100373.94;12200752;19;20054;-82
2022/05/07 01:00:59;;;;;;;5.68;2.38;;;;;;;11.83;73.82;100371.88;12179902;19;20027;-82
2022/05/07 01:05:05;;;;;;;2.75;1.60;;;;;;;11.72;74.15;100370.00;12193217;19;20013;-81
2022/05/07 01:09:08;;;;;;;3.30;1.90;;;;;;;11.58;74.53;100368.59;12197374;19;20468;-82
2022/05/07 01:13:09;;;;;;;3.55;2.05;;;;;;;11.44;74.85;100372.69;12183630;19;20047;-81
2022/05/07 01:17:13;;;;;;;2.90;1.90;;;;;;;11.27;74.96;100373.41;12195527;19;20094;-81
2022/05/07 01:21:22;;;;;;;4.72;2.15;;;;;;;11.14;74.89;100373.66;12197967;19;20011;-82
2022/05/07 01:25:25;;;;;;;4.45;2.40;;;;;;;11.01;75.28;100368.41;12183097;19;20007;-80
2022/05/07 01:29:30;;;;;;;5.07;2.88;;;;;;;10.91;75.49;100363.47;12191976;19;20042;-80
2022/05/07 01:33:36;;;;;;;4.45;2.63;;;;;;;10.82;76.03;100362.13;12191915;19;20007;-80
2022/05/07 01:37:42;;;;;;;7.72;3.17;;;;;;;10.76;76.26;100371.34;12180924;19;20019;-80
2022/05/07 01:41:44;;;;;;;9.37;2.90;;;;;;;10.69;76.74;100365.97;12194289;19;20011;-81
2022/05/07 01:45:45;;;;;;;4.68;2.63;;;;;;;10.62;77.12;100366.06;12201134;19;20029;-81
2022/05/07 01:49:49;;;;;;;3.35;2.15;;;;;;;10.55;77.56;100364.50;12184820;19;20082;-81
2022/05/07 01:53:52;;;;;;;8.68;3.13;;;;;;;10.51;77.83;100364.13;12205093;19;20077;-80
2022/05/07 01:57:54;;;;;;;8.02;2.40;;;;;;;10.45;78.08;100368.66;12198963;19;20010;-80
2022/05/07 02:01:57;;;;;;;4.93;2.78;;;;;;;10.40;78.06;100363.00;12207913;19;20468;-80
2022/05/07 02:06:00;;;;;;;5.65;2.47;;;;;;;10.37;78.52;100362.66;12216186;19;20010;-80
2022/05/07 02:10:02;;;;;;;5.03;2.63;;;;;;;10.32;78.63;100373.53;12182163;19;20018;-80
2022/05/07 02:14:06;;;;;;;4.00;2.45;;;;;;;10.26;79.07;100367.91;12212708;19;20011;-81
2022/05/07 02:18:08;;;;;;;5.10;2.30;;;;;;;10.21;79.45;100370.47;12212226;19;20627;-81
2022/05/07 02:22:09;;;;;;;4.28;2.88;;;;;;;10.19;79.70;100366.28;12179997;19;20018;-81
2022/05/07 02:26:11;;;;;;;8.13;2.65;;;;;;;10.15;80.44;100368.66;12208980;19;20007;-81
2022/05/07 02:30:13;;;;;;;7.70;3.85;;;;;;;10.09;81.16;100366.84;12206886;19;20359;-81
2022/05/07 02:34:15;;;;;;;6.07;2.37;;;;;;;10.00;82.43;100366.31;12178110;19;20039;-80
2022/05/07 02:38:17;;;;;;;4.75;2.25;;;;;;;9.96;81.95;100367.84;12202542;19;20723;-79
2022/05/07 02:46:46;;;;;;;4.82;2.60;;;;;;;9.90;82.82;100357.75;12188425;19;20014;-80
2022/05/07 02:50:48;;;;;;;4.65;2.22;;;;;;;9.89;82.98;100367.09;12204034;19;20018;-82
2022/05/07 02:54:50;;;;;;;4.35;2.42;;;;;;;9.88;82.77;100364.59;12201722;19;20440;-81
2022/05/07 02:58:51;;;;;;;9.90;2.83;;;;;;;9.87;82.96;100358.22;12192776;19;20011;-81
2022/05/07 03:02:53;;;;;;;3.90;2.45;;;;;;;9.89;82.97;100364.34;12205412;19;20030;-80
2022/05/07 03:07:00;;;;;;;3.97;2.13;;;;;;;9.88;83.13;100364.59;12182339;19;20014;-81
2022/05/07 03:11:02;;;;;;;3.93;2.50;;;;;;;9.87;83.45;100358.22;12212342;19;20022;-81
2022/05/07 03:15:06;;;;;;;4.80;2.78;;;;;;;9.84;83.68;100353.19;12200639;19;20038;-81
2022/05/07 03:19:08;;;;;;;5.20;2.42;;;;;;;9.79;84.30;100361.31;12187475;19;20015;-82
2022/05/07 03:23:13;;;;;;;5.10;2.60;;;;;;;9.75;84.41;100355.41;12209731;19;20014;-81
2022/05/07 03:27:16;;;;;;;4.78;2.60;;;;;;;9.72;84.74;100352.28;12198658;19;20009;-81
2022/05/07 03:31:18;;;;;;;6.25;3.22;;;;;;;9.70;86.69;100354.44;12180798;19;20084;-81
2022/05/07 03:35:21;;;;;;;3.60;2.60;;;;;;;9.67;87.36;100349.41;12202692;19;20090;-81
2022/05/07 03:39:26;;;;;;;4.47;2.73;;;;;;;9.69;87.41;100350.00;12205494;19;20350;-81
2022/05/07 03:43:28;;;;;;;5.40;2.72;;;;;;;9.71;87.16;100356.94;12186031;19;20476;-82
2022/05/07 03:47:30;;;;;;;6.07;3.00;;;;;;;9.74;87.60;100350.16;12202430;19;20010;-80
2022/05/07 03:53:29;;;;;;;;;;;;;;;9.78;87.94;100365.13;12209925;19;20469;-81
2022/05/07 03:56:04;;;;;;;7.03;3.25;;;;;;;9.81;88.09;100350.88;12174249;19;19922;-80
2022/05/07 04:00:09;;;;;;;4.85;3.33;;;;;;;9.82;87.89;100350.69;12206001;19;20010;-80
2022/05/07 04:04:21;;;;;;;7.28;3.42;;;;;;;9.85;88.01;100348.53;12179034;19;20014;-80
2022/05/07 04:08:23;;;;;;;4.07;2.92;;;;;;;9.91;87.87;100350.38;12198277;19;20512;-80
2022/05/07 04:12:25;;;;;;;;;;;;;;;9.98;88.11;100351.09;12197852;19;20010;-81
2022/05/07 04:16:27;;;;;;;6.55;2.97;;;;;;;10.04;87.37;100359.25;12170760;19;20587;-81
2022/05/07 04:20:44;;;;;;;5.03;3.17;;;;;;;10.09;88.02;100361.34;12204385;19;20044;-80
2022/05/07 04:24:50;;;;;;;5.15;2.78;;;;;;;10.02;87.72;100360.56;12197078;19;20504;-80
2022/05/07 04:28:52;;;;;;;5.88;3.30;;;;;;;9.81;87.87;100361.91;12185676;19;20027;-81
2022/05/07 04:32:53;;;;;;;5.22;3.38;;;;;;;9.64;88.63;100374.59;12198835;19;20457;-80
2022/05/07 04:36:57;;;;;;;5.13;3.28;;;;;;;9.59;88.83;100378.06;12179047;19;20031;-81
2022/05/07 04:40:58;;;;;;;4.30;3.28;;;;;;;9.59;88.69;100373.38;12210030;19;20020;-81
2022/05/07 04:45:05;;;;;;;4.28;2.90;;;;;;;9.55;91.15;100377.69;12191627;19;20027;-80
2022/05/07 04:49:19;;;;;;;6.00;3.10;;;;;;;9.58;89.76;100381.88;12182197;19;20484;-80
2022/05/07 04:53:23;;;;;;;4.65;3.22;;;;;;;9.59;89.26;100380.81;12186502;19;20014;-80
2022/05/07 04:57:26;;;;;;;4.82;3.40;;;;;;;9.57;89.28;100383.78;12192402;19;20027;-80
2022/05/07 05:01:35;;;;;;;6.43;3.28;;;;;;;9.57;89.80;100383.78;12179761;19;20456;-80
2022/05/07 05:05:41;;;;;;;5.65;3.40;;;;;;;9.59;89.63;100389.91;12199566;19;20042;-80
2022/05/07 05:09:51;;;;;;;6.32;3.40;;;;;;;9.62;89.76;100396.03;12199286;19;20035;-80
2022/05/07 05:15:01;;;;;;;4.13;3.00;;;;;;;9.64;89.73;100397.47;12176116;19;20011;-80
2022/05/07 05:18:29;;;;;;;5.70;3.20;;;;;;;9.70;90.72;100403.97;12212865;19;20039;-79
2022/05/07 05:22:31;;;;;;;6.93;3.47;;;;;;;9.75;90.80;100406.88;12201051;19;20438;-79
2022/05/07 05:26:37;;;;;;;6.95;3.60;;;;;;;9.80;90.56;100410.59;12218461;19;20002;-80
2022/05/07 05:30:46;;;;;;;6.85;3.53;;;;;;;9.87;90.46;100418.78;12224953;19;20015;-80
2022/05/07 05:34:53;;;;;;;6.65;3.28;;;;;;;9.92;90.89;100410.69;12191212;19;20002;-80
2022/05/07 05:39:05;;;;;;;7.90;3.88;;;;;;;9.99;91.01;100416.97;12225529;19;20011;-81
2022/05/07 05:43:08;;;;;;;7.78;4.07;;;;;;;10.07;91.59;100424.03;12197914;19;20006;-81
2022/05/07 05:47:10;;;;;;;5.43;3.57;;;;;;;10.16;91.83;100417.16;12218203;19;20088;-81
2022/05/07 05:51:12;;;;;;;5.22;3.47;;;;;;;10.25;91.72;100414.91;12218340;19;20316;-79
2022/05/07 05:55:17;;;;;;;6.82;3.08;;;;;;;10.37;91.67;100424.09;12239274;19;20024;-79
2022/05/07 05:59:22;;;;;;;5.90;3.75;;;;;;;10.46;91.71;100422.69;12266636;19;20041;-78
2022/05/07 06:03:29;;;;;;;3.95;2.92;;;;;;;10.59;91.83;100426.31;12266503;19;20007;-79
2022/05/07 06:07:30;;;;;;;6.60;3.30;;;;;;;10.73;92.09;100428.63;12251563;19;20007;-80
2022/05/07 06:11:35;;;;;;;7.95;3.38;;;;;;;10.87;91.88;100429.28;12264603;19;20014;-78
2022/05/07 06:15:39;;;;;;;4.63;2.90;;;;;;;11.05;91.73;100435.78;12256889;19;20014;-80
2022/05/07 06:19:43;;;;;;;6.50;3.42;;;;;;;11.24;90.81;100437.34;12246662;19;20063;-80
2022/05/07 06:23:45;;;;;;;5.32;3.38;;;;;;;11.47;90.50;100441.19;12265619;19;20507;-79
2022/05/07 06:27:49;;;;;;;;;;;;;;;11.65;89.91;100435.53;12256838;19;20045;-80
2022/05/07 06:31:56;;;;;;;7.85;3.65;;;;;;;11.89;88.62;100436.38;12202392;19;19911;-81
2022/05/07 06:35:59;;;;;;;9.18;3.65;;;;;;;12.12;87.89;100446.53;12217170;19;20127;-81
2022/05/07 06:40:07;;;;;;;10.05;4.00;;;;;;;12.39;86.62;100444.03;12210169;19;20011;-81
2022/05/07 06:44:12;;;;;;;5.18;3.35;;;;;;;12.70;84.99;100442.72;12216684;19;20116;-81
2022/05/07 06:48:14;;;;;;;6.90;4.70;;;;;;;12.99;83.24;100439.88;12222808;19;20023;-81
2022/05/07 06:52:18;;;;;;;5.80;4.00;;;;;;;13.28;82.06;100442.59;12192926;19;20090;-82
2022/05/07 06:56:26;;;;;;;7.20;3.33;;;;;;;13.59;80.73;100441.13;12215258;19;20094;-81
2022/05/07 07:00:28;;;;;;;4.88;3.13;;;;;;;13.91;80.05;100447.69;12214534;19;20046;-81
2022/05/07 07:04:30;;;;;;;8.77;3.53;;;;;;;14.23;79.21;100444.22;12206812;19;20062;-81
2022/05/07 07:08:32;;;;;;;4.00;2.97;;;;;;;14.53;78.62;100443.75;12224377;19;20014;-81
2022/05/07 07:12:38;;;;;;;5.35;3.17;;;;;;;14.89;77.28;100438.56;12211917;19;20105;-80
2022/05/07 07:16:41;;;;;;;5.72;3.33;;;;;;;15.24;76.01;100440.81;12188544;19;20010;-80
2022/05/07 07:20:44;;;;;;;4.07;2.85;;;;;;;15.57;74.94;100440.78;12204463;19;20064;-81
2022/05/07 07:24:45;;;;;;;9.65;3.08;;;;;;;15.87;74.03;100441.00;12208807;19;20044;-81
2022/05/07 07:28:48;;;;;;;;;;;;;;;16.15;72.59;100444.44;12164121;19;20555;-81
2022/05/07 07:32:50;;;;;;;11.10;4.15;;;;;;;16.48;71.50;100446.00;12213239;19;20008;-81
2022/05/07 07:36:52;;;;;;;4.03;2.72;;;;;;;16.79;70.05;100446.91;12211331;19;20011;-81
2022/05/07 07:40:54;;;;;;;4.78;2.58;;;;;;;17.01;68.62;100443.91;12187803;19;20066;-81
2022/05/07 07:49:17;;;;;;;9.73;3.35;;;;;;;17.63;65.68;100446.63;12194534;19;20007;-81
2022/05/07 07:53:24;;;;;;;5.88;2.67;;;;;;;17.84;64.59;100448.28;12201516;19;20010;-82
2022/05/07 07:57:27;;;;;;;7.50;3.00;;;;;;;18.04;62.81;100441.81;12212519;19;20433;-80
2022/05/07 08:01:29;;;;;;;4.18;2.60;;;;;;;18.30;60.83;100433.38;12185450;19;20034;-80
2022/05/07 08:05:36;;;;;;;3.40;2.30;;;;;;;18.49;59.55;100430.75;12213215;19;20014;-81
2022/05/07 08:14:00;;;;;;;5.28;2.10;;;;;;;18.90;57.99;100431.34;12188215;19;20014;-80
2022/05/07 08:18:02;;;;;;;4.72;2.90;;;;;;;19.27;57.83;100432.72;12210813;19;20529;-80
2022/05/07 08:22:05;;;;;;;4.03;2.50;;;;;;;19.49;57.12;100430.28;12191956;19;20017;-80
2022/05/07 08:26:08;;;;;;;5.40;2.53;;;;;;;19.83;55.64;100420.19;12197666;19;20030;-80
2022/05/07 08:30:11;;;;;;;6.85;2.75;;;;;;;20.18;54.54;100419.75;12202823;19;20007;-80
2022/05/07 08:34:13;;;;;;;7.70;2.50;;;;;;;20.41;53.50;100422.84;12168344;19;20043;-81
2022/05/07 08:38:16;;;;;;;4.97;2.05;;;;;;;20.53;52.12;100425.22;12202489;19;20352;-80
2022/05/07 08:42:38;;;;;;;4.53;2.13;;;;;;;20.68;49.57;100425.00;12194377;19;20006;-80
2022/05/07 08:47:09;;;;;;;3.35;2.38;;;;;;;20.90;48.13;100416.81;12199534;19;20318;-81
2022/05/07 08:51:27;;;;;;;5.43;1.95;;;;;;;20.89;47.68;100417.94;12196592;19;20019;-81
2022/05/07 08:55:29;;;;;;;;;;;;;;;21.07;45.28;100421.03;12174816;19;20240;-80
2022/05/07 08:59:44;;;;;;;2.58;1.85;;;;;;;21.44;45.64;100416.50;12197565;19;20662;-81
2022/05/07 09:03:48;;;;;;;4.90;1.85;;;;;;;21.57;42.58;100422.16;12224221;19;20438;-80
2022/05/07 09:07:58;;;;;;;2.90;1.80;;;;;;;21.61;41.65;100416.75;12182683;19;20018;-81
2022/05/07 09:11:59;;;;;;;4.68;2.03;;;;;;;21.75;42.31;100420.41;12199549;19;20011;-81
2022/05/07 09:16:08;;;;;;;3.78;1.20;;;;;;;21.83;39.80;100416.91;12181757;19;20054;-81
2022/05/07 09:20:12;;;;;;;3.17;1.70;;;;;;;21.73;39.06;100414.28;12209883;19;20086;-81
2022/05/07 09:24:14;;;;;;;3.75;1.63;;;;;;;21.72;37.73;100415.44;12210002;19;20014;-81
2022/05/07 09:28:26;;;;;;;2.35;1.27;;;;;;;21.80;37.54;100406.31;12175622;19;20036;-79
2022/05/07 09:32:38;;;;;;;3.28;1.20;;;;;;;21.91;38.58;100403.28;12194348;19;20090;-81
2022/05/07 09:36:40;;;;;;;3.33;1.50;;;;;;;22.20;37.53;100398.22;12194597;19;20484;-80
2022/05/07 09:40:43;;;;;;;4.10;1.27;;;;;;;22.60;38.63;100403.22;12182543;19;20825;-81
2022/05/07 09:44:46;;;;;;;2.95;1.45;;;;;;;22.64;37.24;100401.47;12186569;19;20046;-81
2022/05/07 09:48:47;;;;;;;4.45;1.65;;;;;;;22.57;37.08;100399.06;12193568;19;20083;-83
2022/05/07 10:01:48;;;;;;;2.75;1.60;;;;;;;23.22;34.39;100396.97;12169264;19;20082;-81
2022/05/07 10:06:11;;;;;;;7.45;2.13;;;;;;;23.32;34.76;100391.09;12210369;19;20082;-81
2022/05/07 10:10:25;;;;;;;;;;;;;;;23.25;34.52;100394.34;12180658;19;20120;-81
2022/05/07 10:14:30;;;;;;;4.25;2.30;;;;;;;23.38;34.64;100378.56;12201880;19;19970;-80
2022/05/07 10:18:35;;;;;;;4.15;1.63;;;;;;;23.09;34.65;100387.47;12198946;19;20014;-81
2022/05/07 10:22:39;;;;;;;4.22;1.75;;;;;;;23.30;34.65;100384.97;12185664;19;20011;-81
2022/05/07 10:26:50;;;;;;;4.78;2.22;;;;;;;23.38;33.67;100372.94;12209871;19;20039;-81
2022/05/07 10:30:56;;;;;;;4.07;1.70;;;;;;;23.63;34.07;100375.06;12205611;19;20010;-81
2022/05/07 10:34:58;;;;;;;2.65;1.67;;;;;;;23.96;34.13;100371.91;12175923;19;20074;-81
2022/05/07 10:39:06;;;;;;;2.73;1.90;;;;;;;23.97;33.44;100367.09;12211106;19;20002;-82
2022/05/07 10:43:08;;;;;;;4.60;2.05;;;;;;;23.92;32.57;100368.09;12183411;19;20035;-81
2022/05/07 10:47:11;;;;;;;3.35;1.85;;;;;;;23.93;33.23;100355.66;12208512;19;20117;-81
2022/05/07 10:51:34;;;;;;;3.85;1.70;;;;;;;24.64;32.74;100357.50;12203288;19;19998;-82
2022/05/07 10:55:41;;;;;;;3.30;1.60;;;;;;;24.98;31.83;100351.81;12179961;19;20160;-81
2022/05/07 10:59:49;;;;;;;3.70;2.03;;;;;;;24.51;30.94;100348.00;12205242;19;20017;-83
2022/05/07 11:04:10;;;;;;;4.70;2.13;;;;;;;24.06;32.97;100337.84;12200719;19;20006;-82
2022/05/07 11:08:12;;;;;;;8.60;1.88;;;;;;;23.61;33.90;100345.59;12185583;19;20011;-83
2022/05/07 11:12:22;;;;;;;4.90;1.50;;;;;;;23.56;34.18;100352.19;12205478;19;21724;-82
2022/05/07 11:16:25;;;;;;;5.05;2.10;;;;;;;23.52;34.73;100348.34;12179212;19;20011;-83
2022/05/07 11:20:35;;;;;;;4.95;1.73;;;;;;;24.33;33.90;100347.13;12204803;19;20015;-81
2022/05/07 11:24:56;;;;;;;5.18;2.00;;;;;;;24.14;33.39;100339.00;12206164;19;20374;-81
2022/05/07 11:29:06;;;;;;;5.18;1.98;;;;;;;24.82;32.96;100342.22;12183163;19;20006;-81
2022/05/07 11:33:08;;;;;;;7.35;2.00;;;;;;;25.43;31.39;100340.16;12204762;19;20019;-82
2022/05/07 11:37:16;;;;;;;3.58;1.73;;;;;;;25.86;31.52;100327.88;12183551;19;20779;-82
2022/05/07 11:41:23;;;;;;;3.67;1.83;;;;;;;26.95;30.93;100326.09;12198364;19;20010;-81
2022/05/07 11:45:44;;;;;;;4.07;1.80;;;;;;;27.88;29.08;100329.38;12196277;19;20375;-82
2022/05/07 11:49:59;;;;;;;4.18;2.28;;;;;;;27.14;27.38;100322.72;12179875;19;20011;-81
2022/05/07 11:54:09;;;;;;;3.90;1.98;;;;;;;26.94;28.34;100324.41;12201392;19;20015;-83
2022/05/07 11:58:14;;;;;;;3.15;1.70;;;;;;;27.10;29.34;100323.75;12180892;19;20682;-81
2022/05/07 12:02:17;;;;;;;5.00;1.95;;;;;;;27.44;28.27;100317.75;12199394;19;20002;-81
2022/05/07 12:06:30;;;;;;;5.28;1.70;;;;;;;28.02;27.76;100326.19;12199050;19;20398;-82
2022/05/07 12:10:32;;;;;;;4.72;1.98;;;;;;;27.24;28.68;100308.16;12184471;19;20018;-81
2022/05/07 12:14:34;;;;;;;2.13;1.30;;;;;;;26.29;29.32;100304.16;12202048;19;20032;-83
2022/05/07 12:18:37;;;;;;;3.35;1.67;;;;;;;25.97;29.57;100302.06;12203452;19;20007;-82
2022/05/07 12:31:23;;;;;;;3.20;2.03;;;;;;;24.88;31.50;100306.25;12175093;19;20026;-81
2022/05/07 12:35:25;;;;;;;3.75;1.70;;;;;;;26.19;31.10;100292.47;12196605;19;20396;-82
2022/05/07 12:39:27;;;;;;;;;;;;;;;27.80;28.73;100287.00;12206994;19;20017;-81
2022/05/07 12:43:29;;;;;;;2.87;1.60;;;;;;;29.60;27.31;100288.19;12177557;19;19974;-82
2022/05/07 12:47:30;;;;;;;7.63;1.95;;;;;;;30.30;24.67;100276.94;12215876;19;20090;-83
2022/05/07 12:51:32;;;;;;;4.78;2.17;;;;;;;31.76;23.61;100267.59;12215810;19;20010;-84
2022/05/07 12:55:34;;;;;;;3.08;1.90;;;;;;;31.76;23.26;100270.44;12181370;19;20059;-84
2022/05/07 12:59:36;;;;;;;4.85;2.45;;;;;;;30.95;23.94;100275.47;12209846;19;20127;-83
2022/05/07 13:03:38;;;;;;;3.25;2.30;;;;;;;30.97;23.11;100256.00;12208642;19;20011;-83
2022/05/07 13:07:40;;;;;;;4.00;2.08;;;;;;;30.60;23.92;100262.97;12170360;19;20014;-83
2022/05/07 13:11:42;;;;;;;2.83;1.80;;;;;;;31.18;23.99;100247.88;12226197;19;20044;-81
2022/05/07 13:15:44;;;;;;;5.13;2.58;;;;;;;32.22;22.63;100249.56;12194613;19;20476;-83
2022/05/07 13:19:45;;;;;;;6.25;2.65;;;;;;;33.28;22.26;100240.63;12171255;19;20013;-82
2022/05/07 13:23:47;;;;;;;5.15;2.13;;;;;;;34.14;21.80;100241.31;12193883;19;20010;-84
2022/05/07 13:27:49;;;;;;;4.72;2.20;;;;;;;35.05;20.46;100229.88;12205847;19;20082;-83
2022/05/07 13:31:51;;;;;;;4.60;1.95;;;;;;;34.04;20.62;100239.25;12190318;19;20414;-83
2022/05/07 13:35:54;;;;;;;4.00;2.05;;;;;;;31.87;21.38;100227.03;12209838;19;20064;-83
2022/05/07 13:39:56;;;;;;;4.20;2.42;;;;;;;30.27;22.58;100222.88;12185882;19;20006;-83
2022/05/07 13:44:00;;;;;;;3.95;1.90;;;;;;;28.74;25.02;100230.00;12209510;19;20011;-84
2022/05/07 13:48:02;;;;;;;4.57;2.00;;;;;;;27.77;26.10;100222.56;12211954;19;20393;-84
2022/05/07 13:52:04;;;;;;;5.15;2.08;;;;;;;27.54;26.57;100220.22;12187936;19;20035;-81
2022/05/07 13:56:07;;;;;;;3.25;1.98;;;;;;;28.15;26.21;100216.50;12205770;19;20023;-83
2022/05/07 14:00:16;;;;;;;5.68;1.70;;;;;;;30.35;24.26;100214.13;12214559;19;20109;-84
2022/05/07 14:04:18;;;;;;;3.38;2.70;;;;;;;31.53;22.78;100206.97;12191291;19;20010;-84
2022/05/07 14:08:19;;;;;;;1.90;1.55;;;;;;;31.00;24.09;100212.56;12202312;19;20011;-83
2022/05/07 14:12:22;;;;;;;3.90;1.92;;;;;;;29.57;25.29;100204.59;12204621;19;20007;-83
2022/05/07 14:16:24;;;;;;;5.43;2.22;;;;;;;28.74;25.56;100195.97;12183271;19;20015;-82
2022/05/07 14:20:26;;;;;;;3.75;1.92;;;;;;;30.14;24.13;100205.13;12207345;19;20047;-84
2022/05/07 14:24:29;;;;;;;4.80;1.77;;;;;;;31.45;22.84;100194.66;12217373;19;20003;-83
2022/05/07 14:28:31;;;;;;;4.47;2.10;;;;;;;30.75;24.04;100195.00;12185130;19;20497;-83
2022/05/07 14:32:32;;;;;;;;;;;;;;;29.25;24.40;100186.78;12209966;19;20074;-82
2022/05/07 14:36:34;;;;;;;3.10;1.80;;;;;;;28.64;25.02;100190.81;12210755;19;19931;-82
2022/05/07 14:40:36;;;;;;;2.42;1.50;;;;;;;28.31;25.36;100191.06;12183064;19;20135;-82
2022/05/07 14:44:38;;;;;;;;;;;;;;;28.11;26.63;100192.88;12199489;19;20078;-83
2022/05/07 14:48:41;;;;;;;6.50;2.30;;;;;;;27.49;26.66;100181.66;12211094;19;20333;-83
2022/05/07 14:52:43;;;;;;;3.67;1.60;;;;;;;26.66;28.93;100182.03;12176656;19;20014;-83
2022/05/07 14:56:44;;;;;;;3.75;2.15;;;;;;;25.99;28.50;100173.47;12203642;19;20464;-82
2022/05/07 15:00:46;;;;;;;6.65;2.15;;;;;;;25.57;29.13;100172.59;12216082;19;20356;-82
2022/05/07 15:04:48;;;;;;;5.25;1.67;;;;;;;24.93;29.10;100168.78;12180640;19;20011;-83
2022/05/07 15:13:09;;;;;;;5.55;2.00;;;;;;;24.69;30.65;100162.88;12177375;19;20621;-82
2022/05/07 15:17:13;;;;;;;3.35;1.60;;;;;;;24.56;30.08;100156.28;12206026;19;20017;-82
2022/05/07 15:21:15;;;;;;;3.63;1.98;;;;;;;24.34;29.94;100152.50;12214863;19;20476;-82
2022/05/07 15:25:18;;;;;;;5.10;1.80;;;;;;;24.78;30.25;100149.59;12178777;19;20490;-83
2022/05/07 15:29:21;;;;;;;3.78;2.00;;;;;;;24.79;30.73;100151.25;12209190;19;20247;-83
2022/05/07 15:37:43;;;;;;;2.90;1.92;;;;;;;23.79;32.58;100163.59;12188958;19;20405;-82
2022/05/07 15:41:45;;;;;;;5.00;1.70;;;;;;;23.33;32.92;100151.75;12210471;19;20073;-83
2022/05/07 15:45:47;;;;;;;3.33;1.47;;;;;;;22.92;33.33;100157.72;12209864;19;20051;-84
2022/05/07 15:49:48;;;;;;;4.30;1.70;;;;;;;22.56;35.77;100150.28;12187924;19;21940;-83
2022/05/07 15:53:50;;;;;;;3.17;2.20;;;;;;;22.23;38.30;100147.75;12204693;19;20011;-84
2022/05/07 15:57:51;;;;;;;5.90;3.50;;;;;;;21.93;38.67;100143.72;12192076;19;20007;-84
2022/05/07 16:01:53;;;;;;;6.60;2.53;;;;;;;21.76;39.08;100144.38;12207428;19;20096;-83
2022/05/07 16:05:55;;;;;;;3.43;2.00;;;;;;;21.87;37.78;100144.97;12213434;19;20737;-84
2022/05/07 16:10:16;;;;;;;5.47;2.00;;;;;;;21.93;38.30;100135.28;12203723;19;20484;-82
2022/05/07 16:14:22;;;;;;;2.90;2.17;;;;;;;22.07;37.84;100130.44;12202357;19;20014;-84
2022/05/07 16:18:25;;;;;;;3.00;1.90;;;;;;;22.34;36.57;100133.44;12201843;19;20010;-83
2022/05/07 16:26:51;;;;;;;5.93;1.90;;;;;;;22.42;34.67;100124.25;12198933;19;20432;-83
2022/05/07 16:30:57;;;;;;;3.05;1.77;;;;;;;22.48;34.28;100125.78;12184894;19;20501;-84
2022/05/07 16:34:58;;;;;;;3.95;2.00;;;;;;;22.45;34.77;100116.00;12211353;19;20052;-83
2022/05/07 16:39:00;;;;;;;2.78;1.75;;;;;;;22.50;35.17;100121.50;12209721;19;20011;-83
2022/05/07 16:43:02;;;;;;;5.90;1.73;;;;;;;22.38;34.47;100117.63;12181231;19;20034;-82
2022/05/07 16:47:16;;;;;;;4.87;1.53;;;;;;;22.38;35.05;100115.66;12199452;19;20027;-83
2022/05/07 16:51:28;;;;;;;3.00;1.90;;;;;;;22.38;34.29;100120.44;12200452;19;20078;-83
2022/05/07 16:55:44;;;;;;;4.05;1.92;;;;;;;22.32;35.39;100116.13;12178418;19;20270;-82
2022/05/07 16:59:46;;;;;;;6.17;2.10;;;;;;;22.28;34.68;100113.94;12205959;19;20103;-83
2022/05/07 17:04:09;;;;;;;4.87;1.90;;;;;;;22.21;35.42;100121.16;12203091;19;20255;-83
2022/05/07 17:08:38;;;;;;;5.57;1.70;;;;;;;22.18;35.64;100122.63;12102954;19;2004379;-83
2022/05/07 17:17:18;;;;;;;4.70;1.90;;;;;;;22.33;34.96;100114.94;12177677;19;20003;-83
2022/05/07 17:21:23;;;;;;;3.30;1.80;;;;;;;22.20;35.50;100125.94;12202718;19;20126;-82
2022/05/07 17:25:35;;;;;;;7.50;2.00;;;;;;;22.06;36.55;100123.16;12180186;19;20036;-83
2022/05/07 17:29:38;;;;;;;3.20;1.70;;;;;;;21.96;36.38;100122.59;12197917;19;20082;-82
2022/05/07 17:33:41;;;;;;;2.30;1.40;;;;;;;21.83;37.01;100124.31;12196936;19;20017;-83
2022/05/07 17:37:45;;;;;;;4.00;1.60;;;;;;;21.70;37.29;100123.22;12182767;19;20069;-83
2022/05/07 17:41:48;;;;;;;5.85;1.67;;;;;;;21.71;37.71;100129.66;12202533;19;20031;-82
2022/05/07 17:45:49;;;;;;;4.43;2.00;;;;;;;21.81;38.39;100123.81;12197489;19;20493;-82
2022/05/07 17:49:53;;;;;;;5.57;1.97;;;;;;;21.61;38.10;100128.75;12177932;19;20074;-82
2022/05/07 17:54:13;;;;;;;5.15;2.15;;;;;;;21.58;38.88;100131.34;12195504;19;20023;-81
2022/05/07 17:58:23;;;;;;;3.63;2.38;;;;;;;21.36;39.24;100137.75;12180067;19;20006;-82
2022/05/07 18:02:49;;;;;;;5.57;2.60;;;;;;;21.08;40.24;100146.13;12196614;19;20036;-81
2022/05/07 18:06:53;;;;;;;4.90;2.70;;;;;;;20.84;41.29;100153.91;12191115;19;20066;-81
2022/05/07 18:10:57;;;;;;;9.27;4.10;;;;;;;20.60;42.12;100148.50;12197550;19;20043;-81
2022/05/07 18:15:10;;;;;;;7.78;4.25;;;;;;;20.27;43.13;100162.47;12196258;19;20006;-82
2022/05/07 18:19:17;;;;;;;5.80;3.65;;;;;;;19.94;44.30;100156.88;12172008;19;20031;-81
2022/05/07 18:23:30;;;;;;;7.18;3.28;;;;;;;19.63;45.04;100164.88;12199855;19;20022;-83
2022/05/07 18:27:44;;;;;;;5.30;3.22;;;;;;;19.33;45.34;100161.38;12202430;19;20025;-82
2022/05/07 18:31:47;;;;;;;16.75;9.90;;;;;;;19.06;46.05;100175.94;12191498;19;20002;-82
2022/05/07 18:44:57;;;;;;;5.32;3.78;;;;;;;18.34;47.76;100183.34;12198437;19;20011;-82
2022/05/07 18:49:06;;;;;;;4.60;3.15;;;;;;;18.12;48.33;100183.84;12188093;19;20747;-82
2022/05/07 18:53:18;;;;;;;5.13;2.90;;;;;;;17.92;48.85;100195.97;12205406;19;20019;-81
2022/05/07 19:02:14;;;;;;;3.88;2.50;;;;;;;17.55;49.73;100208.44;12190567;19;20044;-82
2022/05/07 19:06:40;;;;;;;5.53;2.97;;;;;;;17.40;49.61;100220.47;12206787;19;20009;-81
2022/05/07 19:30:27;;;;;;;5.65;2.95;;;;;;;16.91;51.01;100235.09;12225638;19;20014;-81
2022/05/07 19:34:33;;;;;;;4.93;3.45;;;;;;;16.89;51.27;100234.53;12184809;19;20007;-81
2022/05/07 19:38:35;;;;;;;8.02;5.25;;;;;;;16.84;51.62;100237.34;12218952;19;20010;-82
2022/05/07 19:42:38;;;;;;;7.40;4.22;;;;;;;16.76;51.63;100247.09;12214454;19;20031;-82
2022/05/07 19:46:42;;;;;;;7.47;4.15;;;;;;;16.70;52.60;100247.34;12180120;19;20062;-82
2022/05/07 19:50:44;;;;;;;5.50;3.90;;;;;;;16.70;51.91;100261.28;12203184;19;20066;-82
2022/05/07 19:54:45;;;;;;;6.30;3.30;;;;;;;16.66;52.91;100261.00;12209960;19;20011;-81
2022/05/07 19:59:10;;;;;;;4.63;3.10;;;;;;;16.81;52.11;100255.44;12185078;19;20090;-82
2022/05/07 20:03:33;;;;;;;5.57;2.97;;;;;;;16.85;52.12;100266.84;12231496;19;20041;-82
2022/05/07 20:07:40;;;;;;;6.05;3.42;;;;;;;16.81;52.77;100261.00;12182237;19;20010;-83
2022/05/07 20:12:03;;;;;;;7.57;3.42;;;;;;;16.74;52.79;100271.53;12218880;19;20023;-82
2022/05/07 20:16:16;;;;;;;6.32;3.38;;;;;;;16.74;52.78;100271.53;12177918;19;20676;-84